This is the latest recevied weather packets stored in our database for station/object WD0REW. If no packets are shown the sender has not sent any weather packets the latest 10 day(s).
| Time | Temp. | Humidity | Pressure | Rain* | Wind** | Luminosity | Snow |
|---|---|---|---|---|---|---|---|
| 1777829092 | 22.78° C | 44% | 1018 hPa | 0 mm | - | 801 W/m² | - |
| 1777828788 | 22.78° C | 43% | 1017.8 hPa | 0 mm | - | 798 W/m² | - |
| 1777828485 | 22.22° C | 44% | 1017.8 hPa | 0 mm | - | 794 W/m² | - |
| 1777828183 | 21.67° C | 46% | 1018 hPa | 0 mm | - | 788 W/m² | - |
| 1777827878 | 22.22° C | 41% | 1018.2 hPa | 0 mm | - | 788 W/m² | - |
| 1777827576 | 21.67° C | 43% | 1018.1 hPa | 0 mm | - | 783 W/m² | - |
| 1777827274 | 21.67° C | 45% | 1018.1 hPa | 0 mm | - | 777 W/m² | - |
| 1777826970 | 21.67° C | 45% | 1018.3 hPa | 0 mm | - | 771 W/m² | - |
| 1777826667 | 21.11° C | 44% | 1018.5 hPa | 0 mm | - | 764 W/m² | - |
| 1777826363 | 21.11° C | 42% | 1018.5 hPa | 0 mm | - | 757 W/m² | - |
| 1777826061 | 21.11° C | 43% | 1018.5 hPa | 0 mm | - | 750 W/m² | - |
| 1777825757 | 21.11° C | 43% | 1018.5 hPa | 0 mm | - | 741 W/m² | - |
| 1777825455 | 20.56° C | 44% | 1018.5 hPa | 0 mm | - | 734 W/m² | - |
| 1777825152 | 20.56° C | 42% | 1018.6 hPa | 0 mm | - | 726 W/m² | - |
| 1777824848 | 20° C | 44% | 1018.6 hPa | 0 mm | - | 717 W/m² | - |
| 1777824545 | 19.44° C | 43% | 1018.7 hPa | 0 mm | - | 709 W/m² | - |
| 1777824241 | 20° C | 43% | 1018.6 hPa | 0 mm | - | 700 W/m² | - |
| 1777823937 | 20° C | 43% | 1018.7 hPa | 0 mm | - | 689 W/m² | - |
| 1777823635 | 19.44° C | 43% | 1018.7 hPa | 0 mm | - | 679 W/m² | - |
| 1777823331 | 19.44° C | 43% | 1018.8 hPa | 0 mm | - | 671 W/m² | - |
| 1777823029 | 18.89° C | 43% | 1018.9 hPa | 0 mm | - | 659 W/m² | - |
| 1777822727 | 19.44° C | 42% | 1018.7 hPa | 0 mm | - | 649 W/m² | - |
| 1777822425 | 18.89° C | 43% | 1018.6 hPa | 0 mm | - | 637 W/m² | - |
| 1777822122 | 18.89° C | 41% | 1018.8 hPa | 0 mm | - | 623 W/m² | - |
| 1777821820 | 18.33° C | 44% | 1018.6 hPa | 0 mm | - | 610 W/m² | - |
* Rain latest hour (hover to see other rain measurements)
** Current wind speed in m/s (hover to see current wind gust speed)